Time;durP1;ratioP1;P1;durP2;ratioP2;P2;SDS_P1;SDS_P2;PMS_P1;PMS_P2;Temp;Humidity;BMP_temperature;BMP_pressure;BME280_temperature;BME280_humidity;BME280_pressure;Samples;Min_cycle;Max_cycle;Signal;HPM_P1;HPM_P2
2024/01/22 00:00:48;;;;;;;3.55;1.95;;;;;;;;;;5025435;28;20773;-90
2024/01/22 00:03:29;;;;;;;0.73;0.22;;;;;;;;;;5043618;28;20047;-93
2024/01/22 00:05:58;;;;;;;0.47;0.43;;;;;;;;;;5026054;28;20084;-92
2024/01/22 00:08:30;;;;;;;0.98;0.30;;;;;;;;;;5028284;28;20049;-92
2024/01/22 00:10:59;;;;;;;0.35;0.35;;;;;;;;;;5031841;28;20056;-93
2024/01/22 00:13:27;;;;;;;0.10;0.10;;;;;;;;;;5028532;28;20066;-93
2024/01/22 00:15:58;;;;;;;0.60;0.60;;;;;;;;;;5030879;28;20072;-92
2024/01/22 00:18:27;;;;;;;0.82;0.30;;;;;;;;;;5055198;28;20079;-89
2024/01/22 00:20:59;;;;;;;0.20;0.20;;;;;;;;;;5053718;28;20060;-92
2024/01/22 00:23:28;;;;;;;1.65;0.98;;;;;;;;;;5036882;28;20043;-92
2024/01/22 00:25:57;;;;;;;0.20;0.20;;;;;;;;;;5054814;28;20041;-92
2024/01/22 00:28:25;;;;;;;0.10;0.10;;;;;;;;;;5037720;28;20037;-94
2024/01/22 00:30:54;;;;;;;2.30;0.77;;;;;;;;;;5035196;28;20053;-93
2024/01/22 00:33:30;;;;;;;1.65;0.93;;;;;;;;;;5030705;28;20107;-93
2024/01/22 00:35:58;;;;;;;0.93;0.60;;;;;;;;;;5033503;28;20061;-92
2024/01/22 00:38:27;;;;;;;0.80;0.52;;;;;;;;;;5049907;28;20083;-93
2024/01/22 00:40:54;;;;;;;3.97;1.45;;;;;;;;;;5024839;28;20127;-92
2024/01/22 00:43:25;;;;;;;0.25;0.25;;;;;;;;;;5028505;28;20045;-93
2024/01/22 00:45:55;;;;;;;0.30;0.30;;;;;;;;;;5026676;28;20328;-93
2024/01/22 00:48:50;;;;;;;0.25;0.25;;;;;;;;;;5028767;28;20045;-92
2024/01/22 00:51:19;;;;;;;0.63;0.40;;;;;;;;;;5031665;28;20080;-93
2024/01/22 00:53:48;;;;;;;1.17;0.60;;;;;;;;;;5032053;28;20053;-93
2024/01/22 00:56:16;;;;;;;0.28;0.28;;;;;;;;;;5044156;28;20118;-93
2024/01/22 00:58:44;;;;;;;1.10;0.88;;;;;;;;;;5045997;28;20065;-92
2024/01/22 01:01:13;;;;;;;0.17;0.17;;;;;;;;;;5033203;28;20049;-91
2024/01/22 01:06:22;;;;;;;0.10;0.10;;;;;;;;;;5113344;22;20049;-92
2024/01/22 01:08:50;;;;;;;0.20;0.20;;;;;;;;;;5027435;28;20090;-92
2024/01/22 01:11:17;;;;;;;0.38;0.38;;;;;;;;;;5032582;28;20060;-93
2024/01/22 01:13:50;;;;;;;0.40;0.30;;;;;;;;;;5030993;28;20057;-93
2024/01/22 01:16:18;;;;;;;0.70;0.50;;;;;;;;;;5023034;28;20065;-94
2024/01/22 01:18:47;;;;;;;0.52;0.22;;;;;;;;;;5024062;28;20109;-93
2024/01/22 01:21:17;;;;;;;1.35;0.65;;;;;;;;;;5040469;28;20121;-93
2024/01/22 01:23:47;;;;;;;0.57;0.57;;;;;;;;;;5029028;28;20109;-94
2024/01/22 01:26:16;;;;;;;1.35;1.20;;;;;;;;;;5031029;28;20046;-93
2024/01/22 01:31:46;;;;;;;0.10;0.10;;;;;;;;;;5025557;28;20111;-92
2024/01/22 01:34:20;;;;;;;0.05;0.05;;;;;;;;;;5028058;28;20061;-92
2024/01/22 01:36:49;;;;;;;1.05;0.95;;;;;;;;;;5026130;28;20334;-92
2024/01/22 01:39:18;;;;;;;0.20;0.20;;;;;;;;;;5026975;28;20080;-92
2024/01/22 01:41:50;;;;;;;0.20;0.17;;;;;;;;;;5032488;28;20064;-92
2024/01/22 01:44:18;;;;;;;1.65;0.38;;;;;;;;;;5024333;28;20060;-94
2024/01/22 01:46:48;;;;;;;1.23;0.80;;;;;;;;;;5025155;28;20299;-93
2024/01/22 01:49:19;;;;;;;0.00;0.00;;;;;;;;;;5026563;28;20057;-92
2024/01/22 01:51:52;;;;;;;0.30;0.30;;;;;;;;;;5026095;28;20054;-93
2024/01/22 01:54:20;;;;;;;0.55;0.47;;;;;;;;;;5024501;28;20122;-93
2024/01/22 01:56:49;;;;;;;0.70;0.70;;;;;;;;;;5023299;28;20060;-94
2024/01/22 01:59:18;;;;;;;0.25;0.20;;;;;;;;;;5023781;28;20140;-92
2024/01/22 02:01:49;;;;;;;0.20;0.20;;;;;;;;;;5023163;28;20240;-92
2024/01/22 02:04:19;;;;;;;0.52;0.10;;;;;;;;;;5023877;28;20075;-93
2024/01/22 02:06:48;;;;;;;2.97;2.83;;;;;;;;;;5025313;28;20053;-92
2024/01/22 02:09:18;;;;;;;1.08;0.68;;;;;;;;;;5023647;28;20080;-93
2024/01/22 02:11:46;;;;;;;0.10;0.10;;;;;;;;;;5025851;28;20049;-92
2024/01/22 02:14:14;;;;;;;0.80;0.38;;;;;;;;;;5027087;28;20115;-92
2024/01/22 02:16:44;;;;;;;0.30;0.30;;;;;;;;;;5029812;28;20033;-93
2024/01/22 02:19:15;;;;;;;0.47;0.43;;;;;;;;;;5048072;28;20459;-92
2024/01/22 02:21:47;;;;;;;3.00;0.38;;;;;;;;;;5030286;28;20046;-91
2024/01/22 02:24:15;;;;;;;0.15;0.13;;;;;;;;;;5048441;22;20134;-93
2024/01/22 02:26:46;;;;;;;0.30;0.30;;;;;;;;;;5045845;28;20053;-91
2024/01/22 02:29:13;;;;;;;0.15;0.15;;;;;;;;;;5047720;28;20393;-92
2024/01/22 02:31:42;;;;;;;1.75;0.10;;;;;;;;;;5046486;28;20429;-94
2024/01/22 02:34:11;;;;;;;0.10;0.10;;;;;;;;;;5047849;28;20049;-91
2024/01/22 02:36:41;;;;;;;0.40;0.40;;;;;;;;;;5051694;28;20050;-92
2024/01/22 02:39:09;;;;;;;0.45;0.40;;;;;;;;;;5042763;28;20061;-92
2024/01/22 02:41:38;;;;;;;0.10;0.10;;;;;;;;;;5042619;28;20053;-93
2024/01/22 02:44:07;;;;;;;0.20;0.20;;;;;;;;;;5042913;28;20049;-92
2024/01/22 02:50:00;;;;;;;4.28;0.85;;;;;;;;;;5047840;28;20041;-93
2024/01/22 02:52:27;;;;;;;0.30;0.30;;;;;;;;;;5043722;28;20120;-93
2024/01/22 02:54:58;;;;;;;0.30;0.30;;;;;;;;;;5047043;28;20095;-93
2024/01/22 02:57:26;;;;;;;0.20;0.20;;;;;;;;;;5045836;28;20053;-92
2024/01/22 02:59:54;;;;;;;0.30;0.30;;;;;;;;;;5046132;28;20152;-93
2024/01/22 03:02:23;;;;;;;1.27;0.30;;;;;;;;;;5046077;28;20060;-92
2024/01/22 03:08:22;;;;;;;0.20;0.20;;;;;;;;;;5041682;28;20024;-93
2024/01/22 03:10:51;;;;;;;0.10;0.10;;;;;;;;;;5040746;28;20064;-94
2024/01/22 03:13:19;;;;;;;2.55;0.70;;;;;;;;;;5041453;28;20080;-92
2024/01/22 03:15:47;;;;;;;0.38;0.38;;;;;;;;;;5041091;28;20338;-93
2024/01/22 03:18:17;;;;;;;0.40;0.40;;;;;;;;;;5040745;28;20080;-93
2024/01/22 03:20:45;;;;;;;0.85;0.85;;;;;;;;;;5041475;28;20219;-92
2024/01/22 03:23:27;;;;;;;0.17;0.17;;;;;;;;;;5041162;28;20112;-92
2024/01/22 03:25:55;;;;;;;0.20;0.20;;;;;;;;;;5041737;28;20060;-92
2024/01/22 03:28:23;;;;;;;8.15;1.33;;;;;;;;;;5044152;28;20059;-93
2024/01/22 03:30:51;;;;;;;0.15;0.15;;;;;;;;;;5046975;28;20061;-93
2024/01/22 03:33:19;;;;;;;0.22;0.20;;;;;;;;;;5259237;22;20095;-92
2024/01/22 03:35:47;;;;;;;2.25;0.40;;;;;;;;;;5026153;28;20053;-91
2024/01/22 03:38:17;;;;;;;0.10;0.10;;;;;;;;;;5043839;28;20121;-93
2024/01/22 03:40:48;;;;;;;0.77;0.65;;;;;;;;;;5027922;28;20109;-93
2024/01/22 03:43:17;;;;;;;0.25;0.25;;;;;;;;;;5032849;28;20049;-92
2024/01/22 03:45:46;;;;;;;0.38;0.38;;;;;;;;;;5036848;28;20097;-92
2024/01/22 03:48:19;;;;;;;1.00;0.57;;;;;;;;;;5049581;28;20148;-93
2024/01/22 03:50:52;;;;;;;0.90;0.63;;;;;;;;;;5028896;28;20045;-93
2024/01/22 03:53:20;;;;;;;1.25;0.57;;;;;;;;;;5025694;28;20049;-93
2024/01/22 03:55:49;;;;;;;0.10;0.10;;;;;;;;;;5026976;28;20053;-93
2024/01/22 03:58:16;;;;;;;0.30;0.30;;;;;;;;;;5043754;28;20084;-93
2024/01/22 04:00:44;;;;;;;0.10;0.10;;;;;;;;;;5026335;28;20080;-94
2024/01/22 04:03:13;;;;;;;0.45;0.38;;;;;;;;;;5027001;28;20108;-95
2024/01/22 04:05:44;;;;;;;0.17;0.17;;;;;;;;;;5028150;28;20075;-94
2024/01/22 04:08:19;;;;;;;0.10;0.10;;;;;;;;;;5028357;28;20076;-94
2024/01/22 04:10:50;;;;;;;0.65;0.57;;;;;;;;;;5030889;28;20053;-93
2024/01/22 04:13:19;;;;;;;0.40;0.20;;;;;;;;;;5036899;28;20041;-93
2024/01/22 04:16:01;;;;;;;0.15;0.15;;;;;;;;;;5054189;28;20037;-92
2024/01/22 04:18:35;;;;;;;0.22;0.22;;;;;;;;;;5029107;28;20049;-91
2024/01/22 04:21:03;;;;;;;0.30;0.30;;;;;;;;;;5043473;28;20081;-92
2024/01/22 04:23:34;;;;;;;0.57;0.50;;;;;;;;;;5026370;28;20073;-93
2024/01/22 04:26:05;;;;;;;0.10;0.10;;;;;;;;;;5027087;28;20060;-92
2024/01/22 04:28:34;;;;;;;0.10;0.10;;;;;;;;;;5025623;28;20186;-92
2024/01/22 04:31:01;;;;;;;0.10;0.10;;;;;;;;;;5027346;28;20111;-92
2024/01/22 04:33:30;;;;;;;0.30;0.30;;;;;;;;;;5023181;28;20337;-92
2024/01/22 04:35:58;;;;;;;0.35;0.35;;;;;;;;;;5023741;28;20045;-93
2024/01/22 04:38:39;;;;;;;0.22;0.22;;;;;;;;;;5035800;28;20063;-91
2024/01/22 04:41:53;;;;;;;;;;;;;;;;;;;;;
2024/01/22 04:49:58;;;;;;;0.93;0.73;;;;;;;;;;5564762;22;20062;-92
2024/01/22 04:52:27;;;;;;;0.10;0.10;;;;;;;;;;5001245;28;20093;-92
2024/01/22 04:54:56;;;;;;;0.47;0.30;;;;;;;;;;4985405;28;20065;-91
2024/01/22 04:57:38;;;;;;;0.05;0.05;;;;;;;;;;4988397;28;20046;-91
2024/01/22 05:00:09;;;;;;;0.22;0.13;;;;;;;;;;4987558;28;20050;-93
2024/01/22 05:02:39;;;;;;;0.55;0.40;;;;;;;;;;4991042;28;20058;-92
2024/01/22 05:05:07;;;;;;;0.22;0.10;;;;;;;;;;4990224;28;20054;-92
2024/01/22 05:07:36;;;;;;;0.30;0.30;;;;;;;;;;4984330;28;20058;-92
2024/01/22 05:10:06;;;;;;;0.52;0.52;;;;;;;;;;4992391;28;20070;-92
2024/01/22 05:12:39;;;;;;;0.00;0.00;;;;;;;;;;4986831;28;20050;-91
2024/01/22 05:15:07;;;;;;;0.80;0.43;;;;;;;;;;4985483;28;20418;-93
2024/01/22 05:17:36;;;;;;;0.57;0.30;;;;;;;;;;4985361;28;20085;-92
2024/01/22 05:20:06;;;;;;;2.15;0.43;;;;;;;;;;4986016;28;20049;-92
2024/01/22 05:30:33;;;;;;;1.02;0.28;;;;;;;;;;5616347;23;20089;-92
2024/01/22 05:33:01;;;;;;;0.80;0.45;;;;;;;;;;4986583;28;20243;-92
2024/01/22 05:35:47;;;;;;;2.55;0.70;;;;;;;;;;5001534;28;20057;-92
2024/01/22 05:38:25;;;;;;;0.10;0.10;;;;;;;;;;4986149;28;20112;-92
2024/01/22 05:41:07;;;;;;;1.13;0.45;;;;;;;;;;4986146;28;20055;-91
2024/01/22 05:43:35;;;;;;;2.08;0.75;;;;;;;;;;4995888;28;20109;-92
2024/01/22 05:46:04;;;;;;;0.35;0.35;;;;;;;;;;4992641;28;20069;-92
2024/01/22 05:48:35;;;;;;;0.55;0.55;;;;;;;;;;5007277;28;20057;-93
2024/01/22 05:51:03;;;;;;;1.10;0.50;;;;;;;;;;4988968;28;20058;-91
2024/01/22 05:53:31;;;;;;;0.47;0.47;;;;;;;;;;4985067;28;20116;-91
2024/01/22 05:56:00;;;;;;;0.32;0.32;;;;;;;;;;4985343;28;20050;-92
2024/01/22 05:58:32;;;;;;;0.50;0.50;;;;;;;;;;4986463;28;20074;-92
2024/01/22 06:01:00;;;;;;;0.32;0.32;;;;;;;;;;5002812;28;20088;-92
2024/01/22 06:03:27;;;;;;;0.15;0.15;;;;;;;;;;5002862;28;20046;-91
2024/01/22 06:05:56;;;;;;;0.30;0.30;;;;;;;;;;4999753;28;20046;-91
2024/01/22 06:08:25;;;;;;;0.77;0.60;;;;;;;;;;4981870;28;20050;-89
2024/01/22 06:10:55;;;;;;;1.77;0.80;;;;;;;;;;4983567;28;20053;-89
2024/01/22 06:13:27;;;;;;;0.40;0.40;;;;;;;;;;4985216;28;20060;-90
2024/01/22 06:15:57;;;;;;;0.10;0.10;;;;;;;;;;4982429;28;20050;-90
2024/01/22 06:18:28;;;;;;;0.32;0.20;;;;;;;;;;4983006;28;20050;-91
2024/01/22 06:21:22;;;;;;;0.20;0.20;;;;;;;;;;5098315;27;20692;-91
2024/01/22 06:23:50;;;;;;;0.22;0.22;;;;;;;;;;5108305;28;20051;-90
2024/01/22 06:26:21;;;;;;;0.10;0.10;;;;;;;;;;5102717;28;20143;-90
2024/01/22 06:28:52;;;;;;;0.20;0.20;;;;;;;;;;5095460;28;20052;-90
2024/01/22 06:31:20;;;;;;;0.75;0.35;;;;;;;;;;5097253;28;20483;-90
2024/01/22 06:33:53;;;;;;;0.28;0.28;;;;;;;;;;5096822;28;20068;-90
2024/01/22 06:36:28;;;;;;;0.10;0.10;;;;;;;;;;5100876;28;20087;-92
2024/01/22 06:38:56;;;;;;;0.10;0.10;;;;;;;;;;5098432;28;20044;-89
2024/01/22 06:41:29;;;;;;;0.20;0.20;;;;;;;;;;5101250;28;20059;-90
2024/01/22 06:43:57;;;;;;;0.10;0.10;;;;;;;;;;5099597;28;20098;-90
2024/01/22 06:46:24;;;;;;;0.68;0.40;;;;;;;;;;5094249;28;20076;-91
2024/01/22 06:48:54;;;;;;;0.20;0.20;;;;;;;;;;5093526;28;20074;-90
2024/01/22 06:51:43;;;;;;;0.15;0.15;;;;;;;;;;5093419;28;20233;-91
2024/01/22 06:54:13;;;;;;;0.10;0.10;;;;;;;;;;5091728;28;20063;-91
2024/01/22 06:56:43;;;;;;;0.40;0.40;;;;;;;;;;5096036;28;20189;-91
2024/01/22 06:59:12;;;;;;;0.20;0.20;;;;;;;;;;5090338;28;20206;-91
2024/01/22 16:34:15;;;;;;;0.10;0.10;;;;;;;;;;5038528;28;20061;-90
2024/01/22 16:36:55;;;;;;;0.10;0.10;;;;;;;;;;5010868;28;20410;-89
2024/01/22 16:39:49;;;;;;;4.38;1.67;;;;;;;;;;5038339;28;20117;-89
2024/01/22 16:42:21;;;;;;;3.80;1.15;;;;;;;;;;5020617;28;20056;-89
2024/01/22 16:45:03;;;;;;;0.05;0.05;;;;;;;;;;5021225;28;20140;-89
2024/01/22 16:47:44;;;;;;;2.72;0.82;;;;;;;;;;5024414;28;20252;-92
2024/01/22 16:50:21;;;;;;;0.52;0.52;;;;;;;;;;5031941;28;20049;-93
2024/01/22 16:52:56;;;;;;;0.10;0.10;;;;;;;;;;5023778;28;20045;-93
2024/01/22 16:55:27;;;;;;;2.83;0.93;;;;;;;;;;5025634;28;20096;-91
2024/01/22 16:57:57;;;;;;;2.00;1.90;;;;;;;;;;5040454;28;20487;-92
2024/01/22 17:00:30;;;;;;;0.10;0.10;;;;;;;;;;5038562;28;20376;-92
2024/01/22 17:03:04;;;;;;;0.00;0.00;;;;;;;;;;5022581;28;20452;-92
2024/01/22 17:05:38;;;;;;;0.10;0.10;;;;;;;;;;5021344;28;20430;-92
2024/01/22 17:08:17;;;;;;;0.10;0.10;;;;;;;;;;5023899;28;20045;-93
2024/01/22 17:10:45;;;;;;;0.00;0.00;;;;;;;;;;5039117;28;20077;-92
2024/01/22 17:13:27;;;;;;;0.10;0.10;;;;;;;;;;5022538;28;20119;-92
2024/01/22 17:15:56;;;;;;;0.30;0.30;;;;;;;;;;5023502;28;20053;-92
2024/01/22 17:18:33;;;;;;;0.57;0.25;;;;;;;;;;5024200;28;20073;-91
2024/01/22 17:21:05;;;;;;;0.03;0.03;;;;;;;;;;5023745;28;20249;-92
2024/01/22 17:23:34;;;;;;;0.08;0.08;;;;;;;;;;5023078;28;20064;-92
2024/01/22 17:26:08;;;;;;;0.28;0.28;;;;;;;;;;5030979;28;20057;-90
2024/01/22 17:28:37;;;;;;;0.30;0.30;;;;;;;;;;5034730;28;20037;-90
2024/01/22 17:31:10;;;;;;;0.10;0.10;;;;;;;;;;5024701;28;20065;-89
2024/01/22 17:33:39;;;;;;;0.10;0.10;;;;;;;;;;5023194;28;20063;-89
2024/01/22 17:36:20;;;;;;;4.70;2.08;;;;;;;;;;5019850;28;20056;-89
2024/01/22 17:38:53;;;;;;;0.00;0.00;;;;;;;;;;5020902;28;20061;-89
2024/01/22 17:47:37;;;;;;;19.80;2.28;;;;;;;;;;5554628;22;20060;-88
2024/01/22 17:50:20;;;;;;;2.33;1.40;;;;;;;;;;5028930;28;20061;-89
2024/01/22 17:53:00;;;;;;;0.30;0.30;;;;;;;;;;5025461;28;20176;-89
2024/01/22 17:59:03;;;;;;;0.15;0.15;;;;;;;;;;5039504;28;20118;-91
2024/01/22 18:01:42;;;;;;;0.10;0.10;;;;;;;;;;5028008;28;20049;-89
2024/01/22 18:04:38;;;;;;;0.10;0.10;;;;;;;;;;5034829;28;20049;-89
2024/01/22 18:07:20;;;;;;;2.63;0.35;;;;;;;;;;5015802;28;20441;-89
2024/01/22 18:10:04;;;;;;;0.32;0.32;;;;;;;;;;5042256;28;20057;-90
2024/01/22 18:12:45;;;;;;;5.25;2.10;;;;;;;;;;5022567;28;20081;-89
2024/01/22 18:15:38;;;;;;;0.00;0.00;;;;;;;;;;5133233;22;20049;-88
2024/01/22 18:18:22;;;;;;;11.10;2.17;;;;;;;;;;5030474;28;20053;-89
2024/01/22 18:20:54;;;;;;;30.15;8.63;;;;;;;;;;5020936;28;20061;-89
2024/01/22 18:23:31;;;;;;;0.15;0.15;;;;;;;;;;5021188;28;20086;-90
2024/01/22 18:26:21;;;;;;;0.82;0.38;;;;;;;;;;5020974;28;20369;-89
2024/01/22 18:33:05;;;;;;;2.63;0.85;;;;;;;;;;5013570;28;20037;-89
2024/01/22 18:39:14;;;;;;;0.10;0.10;;;;;;;;;;5024685;28;20058;-90
2024/01/22 18:42:15;;;;;;;0.20;0.20;;;;;;;;;;5021878;28;20437;-89
2024/01/22 18:45:15;;;;;;;0.10;0.10;;;;;;;;;;5009627;28;20109;-89
2024/01/22 18:48:01;;;;;;;;;;;;;;;;;;5025124;28;20046;-89
2024/01/22 18:50:57;;;;;;;0.38;0.38;;;;;;;;;;5022619;28;19917;-89
2024/01/22 18:54:00;;;;;;;0.30;0.30;;;;;;;;;;5019923;28;20042;-90
2024/01/22 18:56:49;;;;;;;0.43;0.43;;;;;;;;;;5021582;28;20056;-89
2024/01/22 18:59:54;;;;;;;1.70;0.20;;;;;;;;;;5017753;28;20149;-89
2024/01/22 19:02:39;;;;;;;1.85;0.30;;;;;;;;;;5013524;28;20453;-89
2024/01/22 19:05:27;;;;;;;0.40;0.40;;;;;;;;;;5020894;28;20041;-91
2024/01/22 19:08:16;;;;;;;0.03;0.03;;;;;;;;;;5021704;28;20197;-90
2024/01/22 19:11:02;;;;;;;0.10;0.10;;;;;;;;;;5025168;28;20078;-89
2024/01/22 19:13:43;;;;;;;20.80;0.85;;;;;;;;;;5073340;23;20121;-90
2024/01/22 19:16:31;;;;;;;0.00;0.00;;;;;;;;;;5021664;28;20046;-89
2024/01/22 19:19:10;;;;;;;0.00;0.00;;;;;;;;;;5020484;28;20076;-90
2024/01/22 19:21:46;;;;;;;0.10;0.10;;;;;;;;;;5015872;28;20372;-89
2024/01/22 19:24:21;;;;;;;0.10;0.10;;;;;;;;;;5017956;28;20046;-89
2024/01/22 19:27:06;;;;;;;0.10;0.10;;;;;;;;;;5017669;28;20196;-89
2024/01/22 19:29:47;;;;;;;0.10;0.10;;;;;;;;;;5020938;28;20060;-88
2024/01/22 19:32:22;;;;;;;0.40;0.40;;;;;;;;;;5021892;28;20065;-90
2024/01/22 19:35:03;;;;;;;0.00;0.00;;;;;;;;;;5020548;28;20102;-89
2024/01/22 19:37:32;;;;;;;0.10;0.10;;;;;;;;;;5021181;28;20103;-89
2024/01/22 19:40:00;;;;;;;0.17;0.17;;;;;;;;;;5021631;28;20060;-89
2024/01/22 19:42:37;;;;;;;0.45;0.45;;;;;;;;;;5021415;28;20050;-89
2024/01/22 19:45:08;;;;;;;0.10;0.10;;;;;;;;;;5021377;28;20119;-89
2024/01/22 19:47:42;;;;;;;0.10;0.10;;;;;;;;;;5023357;28;20050;-89
2024/01/22 19:50:10;;;;;;;4.95;1.33;;;;;;;;;;5022491;28;20115;-89
2024/01/22 19:52:41;;;;;;;1.48;0.30;;;;;;;;;;5021991;28;20065;-89
2024/01/22 19:55:25;;;;;;;0.10;0.10;;;;;;;;;;5022750;28;20050;-91
2024/01/22 19:58:07;;;;;;;0.10;0.10;;;;;;;;;;5022475;28;20156;-89
2024/01/22 20:01:02;;;;;;;10.23;0.98;;;;;;;;;;5011454;28;20334;-89
2024/01/22 20:03:45;;;;;;;0.10;0.10;;;;;;;;;;5024657;28;20046;-89
2024/01/22 20:06:31;;;;;;;0.10;0.10;;;;;;;;;;5011588;28;20041;-89
2024/01/22 20:09:26;;;;;;;0.15;0.15;;;;;;;;;;5029364;28;20033;-91
2024/01/22 20:12:09;;;;;;;0.00;0.00;;;;;;;;;;5034098;28;20073;-90
2024/01/22 20:14:46;;;;;;;0.90;0.65;;;;;;;;;;5023614;28;20103;-90
2024/01/22 20:17:33;;;;;;;0.83;0.83;;;;;;;;;;5021718;28;20104;-89
2024/01/22 20:20:10;;;;;;;0.55;0.10;;;;;;;;;;5100477;22;20081;-90
2024/01/22 20:22:50;;;;;;;0.10;0.10;;;;;;;;;;5027811;28;20113;-90
2024/01/22 20:25:47;;;;;;;0.10;0.10;;;;;;;;;;5032200;28;20054;-90
2024/01/22 20:28:40;;;;;;;0.38;0.22;;;;;;;;;;5023981;28;20046;-90
2024/01/22 20:31:13;;;;;;;0.10;0.10;;;;;;;;;;5024145;28;20054;-90
2024/01/22 20:34:01;;;;;;;0.30;0.30;;;;;;;;;;5019264;28;20050;-90
2024/01/22 20:36:42;;;;;;;0.10;0.10;;;;;;;;;;5004171;28;20086;-89
2024/01/22 20:39:28;;;;;;;0.00;0.00;;;;;;;;;;5010126;28;20050;-89
2024/01/22 20:42:17;;;;;;;0.10;0.10;;;;;;;;;;5001216;28;20072;-90
2024/01/22 20:45:01;;;;;;;0.10;0.10;;;;;;;;;;4987250;28;20054;-91
2024/01/22 20:51:10;;;;;;;0.10;0.10;;;;;;;;;;5000074;28;20085;-92
2024/01/22 20:54:36;;;;;;;2.78;2.55;;;;;;;;;;5027509;28;20061;-91
2024/01/22 20:57:31;;;;;;;;;;;;;;;;;;;;;
2024/01/22 21:03:35;;;;;;;0.10;0.10;;;;;;;;;;5000676;28;20407;-92
2024/01/22 21:06:54;;;;;;;4.57;0.73;;;;;;;;;;5013882;28;20050;-91
2024/01/22 21:09:39;;;;;;;0.05;0.05;;;;;;;;;;5014522;28;20064;-93
2024/01/22 21:13:02;;;;;;;;;;;;;;;;;;;;;
2024/01/22 21:16:04;;;;;;;0.03;0.03;;;;;;;;;;5258703;22;20061;-92
2024/01/22 21:18:55;;;;;;;0.10;0.10;;;;;;;;;;5024047;28;20072;-93
2024/01/22 21:21:39;;;;;;;4.88;1.00;;;;;;;;;;5007511;28;20313;-93
2024/01/22 21:24:18;;;;;;;0.10;0.10;;;;;;;;;;5008260;28;20046;-92
2024/01/22 21:27:04;;;;;;;0.10;0.10;;;;;;;;;;5028171;28;20100;-92
2024/01/22 21:29:37;;;;;;;1.65;0.20;;;;;;;;;;5031370;28;20030;-90
2024/01/22 21:32:31;;;;;;;;;;;;;;;;;;;;;
2024/01/22 21:35:19;;;;;;;0.10;0.10;;;;;;;;;;5028006;28;20018;-92
2024/01/22 21:37:48;;;;;;;0.10;0.10;;;;;;;;;;5010360;28;20073;-92
2024/01/22 21:43:20;;;;;;;0.10;0.10;;;;;;;;;;5131019;22;20056;-92
2024/01/22 21:45:53;;;;;;;5.93;0.30;;;;;;;;;;5049254;28;20047;-92
2024/01/22 21:48:40;;;;;;;7.35;1.50;;;;;;;;;;5064855;28;20049;-92
2024/01/22 21:51:13;;;;;;;0.95;0.52;;;;;;;;;;5063041;28;20091;-92
2024/01/22 21:53:44;;;;;;;0.10;0.10;;;;;;;;;;5047533;28;20077;-92
2024/01/22 21:56:14;;;;;;;0.20;0.20;;;;;;;;;;5046086;28;20048;-92
2024/01/22 21:58:42;;;;;;;5.88;0.38;;;;;;;;;;5070501;28;20060;-91
2024/01/22 22:01:21;;;;;;;0.00;0.00;;;;;;;;;;5056710;28;20053;-92
2024/01/22 22:03:51;;;;;;;0.08;0.08;;;;;;;;;;5052013;28;20045;-91
2024/01/22 22:06:24;;;;;;;0.00;0.00;;;;;;;;;;5048273;28;20202;-92
2024/01/22 22:08:53;;;;;;;0.10;0.10;;;;;;;;;;5045636;28;20049;-90
2024/01/22 22:11:20;;;;;;;0.10;0.10;;;;;;;;;;5063948;28;20267;-91
2024/01/22 22:13:49;;;;;;;3.83;0.30;;;;;;;;;;5063241;28;20049;-92
2024/01/22 22:16:18;;;;;;;0.00;0.00;;;;;;;;;;5045981;28;20053;-92
2024/01/22 22:18:48;;;;;;;4.10;0.85;;;;;;;;;;5063131;28;20064;-91
2024/01/22 22:21:21;;;;;;;0.00;0.00;;;;;;;;;;5045777;28;20044;-92
2024/01/22 22:23:50;;;;;;;0.05;0.05;;;;;;;;;;5047633;28;20056;-90
2024/01/22 22:26:19;;;;;;;0.00;0.00;;;;;;;;;;5064134;28;20052;-91
2024/01/22 22:28:47;;;;;;;0.10;0.10;;;;;;;;;;5048289;28;20069;-92
2024/01/22 22:31:15;;;;;;;0.10;0.10;;;;;;;;;;5050005;28;20072;-91
2024/01/22 22:33:43;;;;;;;0.28;0.15;;;;;;;;;;5049458;28;20053;-91
2024/01/22 22:36:15;;;;;;;0.10;0.10;;;;;;;;;;5064587;28;20053;-92
2024/01/22 22:38:46;;;;;;;0.10;0.10;;;;;;;;;;5062879;28;20120;-93
2024/01/22 22:41:17;;;;;;;0.90;0.60;;;;;;;;;;5050667;28;20049;-91
2024/01/22 22:43:50;;;;;;;0.88;0.80;;;;;;;;;;5055161;28;20118;-92
2024/01/22 22:46:22;;;;;;;0.00;0.00;;;;;;;;;;5048150;28;20049;-91
2024/01/22 22:48:51;;;;;;;0.00;0.00;;;;;;;;;;5063654;28;20044;-92
2024/01/22 22:51:19;;;;;;;5.40;1.02;;;;;;;;;;5046347;28;20176;-91
2024/01/22 22:53:47;;;;;;;0.00;0.00;;;;;;;;;;5049080;28;20059;-91
2024/01/22 22:56:16;;;;;;;0.08;0.08;;;;;;;;;;5074832;28;20067;-90
2024/01/22 22:58:47;;;;;;;0.03;0.03;;;;;;;;;;5055450;28;20126;-92
2024/01/22 23:01:17;;;;;;;0.10;0.10;;;;;;;;;;5070255;28;20053;-92
2024/01/22 23:03:49;;;;;;;0.13;0.10;;;;;;;;;;5053354;28;20436;-92
2024/01/22 23:13:02;;;;;;;0.10;0.10;;;;;;;;;;5071802;28;20100;-90
2024/01/22 23:15:30;;;;;;;0.10;0.10;;;;;;;;;;5066863;28;20069;-89
2024/01/22 23:18:13;;;;;;;0.00;0.00;;;;;;;;;;5066761;28;20163;-89
2024/01/22 23:20:46;;;;;;;0.10;0.10;;;;;;;;;;5047952;28;20048;-90
2024/01/22 23:27:01;;;;;;;1.77;0.80;;;;;;;;;;5040449;28;20075;-89
2024/01/22 23:29:30;;;;;;;0.32;0.22;;;;;;;;;;5051323;28;20124;-89
2024/01/22 23:32:02;;;;;;;0.10;0.10;;;;;;;;;;5050307;28;20060;-88
2024/01/22 23:34:31;;;;;;;2.08;1.20;;;;;;;;;;5049167;28;20087;-90
2024/01/22 23:37:02;;;;;;;5.47;1.13;;;;;;;;;;5050470;28;20077;-90
2024/01/22 23:39:43;;;;;;;0.10;0.10;;;;;;;;;;5053361;28;20068;-89
2024/01/22 23:42:25;;;;;;;0.55;0.55;;;;;;;;;;5052968;28;20045;-88
2024/01/22 23:45:08;;;;;;;0.10;0.10;;;;;;;;;;5052540;28;20118;-89
2024/01/22 23:47:40;;;;;;;0.00;0.00;;;;;;;;;;5056265;28;20049;-89
2024/01/22 23:50:17;;;;;;;1.10;0.30;;;;;;;;;;5059325;28;20376;-89
2024/01/22 23:52:48;;;;;;;0.10;0.10;;;;;;;;;;5057717;28;20049;-89
2024/01/22 23:55:19;;;;;;;0.00;0.00;;;;;;;;;;5073542;28;20107;-88
2024/01/22 23:57:51;;;;;;;0.10;0.10;;;;;;;;;;5056653;28;20048;-89
